Helena Regional Airport
KHLN : rendu visible

Aérodrome :











RETROUVEZ-NOUS SUR...

 
LOGIN :

S'inscrire | Disclaimer

   EN    FR    IT 

 









Légende :    VFR   VFR Marginal   IFR   IFR Intensif   IFR Très Intensif
Visi : 
Plafond : 
>= 8 km
>= 3000ft
5 à 8 km
1000 à 3000 ft
1500m à 5 km
500 à 1000 ft
800 à 1500m
200 à 500 ft
< 800m
< 200 ft
Symboles :   Orages  Brouillard  Fortes neiges  Fortes précipitations  Vent > 20 kt






- Altitude de l'aérodrome : 3877 ft
- Code IATA : HLN


KHLN - Helena Regional

DERNIER METAR :
  • 170953Z AUTO 24009KT 10SM CLR 08/M04 A3012 RMK AO2 SLP219 T00781044

METARs EXPIRÉS :
  • 170853Z AUTO 26010G22KT 10SM FEW050 07/M06 A3012 RMK AO2 SLP217 T00721056 58017
  • 170753Z AUTO 19007KT 10SM OVC055 06/M04 A3015 RMK AO2 SLP229 T00611044

TAF KHLN
Valide du 17 à 06h jusqu'au 18 à 06h UTC


170530Z 1706/1806 VRB04KT P6SM BKN090
FM172000 24011G28KT P6SM SCT200
FM180200 23008KT P6SM BKN250



MET'MAP, la Météo Aéronautique d'un coup d'oeil ! - Copyright ORBIFLY Décembre 2007 - Disclaimer

ORBIFLY MET'MAP TEAM :

Programmation & Développement : Alexandra Zaïnal
Conception & Développement : Baudouin d'Aumeries
Co-Programmation & Développement : Marc-Olivier Méhu
Soutien technique & logistique : Manuel Goepfert

Contact : metmap@orbifly.com




SOURCES & CREDITS :

   NOAA       Earth
Advisory